Time;durP1;ratioP1;P1;durP2;ratioP2;P2;SDS_P1;SDS_P2;PMS_P1;PMS_P2;Temp;Humidity;BMP_temperature;BMP_pressure;BME280_temperature;BME280_humidity;BME280_pressure;Samples;Min_cycle;Max_cycle;Signal;HPM_P1;HPM_P2
2021/08/20 00:00:21;;;;;;;9.10;4.07;;;16.30;99.90;;;;;;5008326;28;20240;-63
2021/08/20 00:02:51;;;;;;;6.83;4.23;;;16.30;99.90;;;;;;5007261;28;20237;-62
2021/08/20 00:05:21;;;;;;;5.37;4.00;;;16.30;99.90;;;;;;5000990;28;20563;-62
2021/08/20 00:07:49;;;;;;;7.60;4.27;;;16.30;99.90;;;;;;5007888;28;20633;-62
2021/08/20 00:10:18;;;;;;;9.47;5.00;;;16.30;99.90;;;;;;5007837;28;20229;-62
2021/08/20 00:12:47;;;;;;;6.27;3.90;;;16.30;99.90;;;;;;5007011;28;20711;-63
2021/08/20 00:15:16;;;;;;;6.80;3.87;;;16.30;99.90;;;;;;5007729;28;20240;-62
2021/08/20 00:17:44;;;;;;;8.07;4.23;;;16.30;99.90;;;;;;5007487;28;20634;-62
2021/08/20 00:20:13;;;;;;;6.27;4.70;;;16.30;99.90;;;;;;5007752;28;20233;-63
2021/08/20 00:22:41;;;;;;;8.30;4.63;;;16.40;99.90;;;;;;5006481;28;20265;-63
2021/08/20 00:25:10;;;;;;;9.47;4.40;;;16.30;99.90;;;;;;5007304;28;20241;-63
2021/08/20 00:27:39;;;;;;;7.40;4.00;;;16.30;99.90;;;;;;5006921;28;20248;-62
2021/08/20 00:30:11;;;;;;;8.83;4.53;;;16.20;99.90;;;;;;5007630;28;20233;-62
2021/08/20 00:32:39;;;;;;;6.90;4.07;;;16.20;99.90;;;;;;5006761;28;20291;-62
2021/08/20 00:35:08;;;;;;;8.27;4.17;;;16.20;99.90;;;;;;5007880;28;20239;-62
2021/08/20 00:37:36;;;;;;;8.97;4.83;;;16.10;99.90;;;;;;5006244;28;20300;-63
2021/08/20 00:40:06;;;;;;;7.60;4.77;;;16.20;99.90;;;;;;5006414;28;20225;-62
2021/08/20 00:42:34;;;;;;;7.47;4.33;;;16.10;99.90;;;;;;5006805;28;20303;-62
2021/08/20 00:45:03;;;;;;;6.87;4.40;;;16.10;99.90;;;;;;5005291;28;20303;-63
2021/08/20 00:47:34;;;;;;;6.17;4.63;;;16.10;99.90;;;;;;5001796;28;20593;-62
2021/08/20 00:50:03;;;;;;;4.90;4.00;;;16.20;99.90;;;;;;5005260;28;20291;-62
2021/08/20 00:52:34;;;;;;;5.67;4.27;;;16.20;99.90;;;;;;5004988;28;20267;-63
2021/08/20 00:55:04;;;;;;;5.43;4.10;;;16.20;99.90;;;;;;5003762;28;20256;-62
2021/08/20 00:57:35;;;;;;;6.30;4.03;;;16.20;99.90;;;;;;5004739;28;20563;-62
2021/08/20 01:00:04;;;;;;;6.53;4.30;;;16.20;99.90;;;;;;5005151;28;20262;-63
2021/08/20 01:02:33;;;;;;;5.40;4.17;;;16.10;99.90;;;;;;5005404;28;20245;-64
2021/08/20 01:05:02;;;;;;;6.33;4.60;;;16.20;99.90;;;;;;5006433;28;20241;-62
2021/08/20 01:07:36;;;;;;;7.50;4.80;;;16.20;99.90;;;;;;5022226;28;20251;-62
2021/08/20 01:10:06;;;;;;;7.27;4.60;;;16.10;99.90;;;;;;5009632;28;20264;-62
2021/08/20 01:12:36;;;;;;;6.77;4.80;;;16.10;99.90;;;;;;5009532;28;20237;-62
2021/08/20 01:15:05;;;;;;;9.57;5.10;;;16.00;99.90;;;;;;5008533;28;20292;-62
2021/08/20 01:17:34;;;;;;;6.67;4.80;;;16.00;99.90;;;;;;5025260;28;20240;-64
2021/08/20 01:20:08;;;;;;;10.03;5.43;;;16.00;99.90;;;;;;5008190;28;20253;-63
2021/08/20 01:22:40;;;;;;;8.23;5.30;;;16.00;99.90;;;;;;5007964;28;20722;-62
2021/08/20 01:25:13;;;;;;;8.27;4.90;;;16.00;99.90;;;;;;5013214;28;20241;-62
2021/08/20 01:27:41;;;;;;;6.43;5.13;;;16.00;99.90;;;;;;5009282;28;20248;-64
2021/08/20 01:30:12;;;;;;;7.53;5.00;;;16.00;99.90;;;;;;5008851;28;20272;-63
2021/08/20 01:32:41;;;;;;;8.07;4.90;;;15.90;99.90;;;;;;5007316;28;20237;-62
2021/08/20 01:35:10;;;;;;;9.70;5.33;;;16.00;99.90;;;;;;5008524;28;20709;-61
2021/08/20 01:37:38;;;;;;;7.63;5.23;;;15.90;99.90;;;;;;5009090;28;20238;-62
2021/08/20 01:40:08;;;;;;;9.17;4.97;;;15.90;99.90;;;;;;5024466;28;20319;-62
2021/08/20 01:42:38;;;;;;;9.73;5.90;;;15.80;99.90;;;;;;5008416;28;20241;-63
2021/08/20 01:45:07;;;;;;;9.47;5.73;;;15.80;99.90;;;;;;5023889;28;20249;-62
2021/08/20 01:47:35;;;;;;;9.20;5.87;;;15.70;99.90;;;;;;5014726;28;20242;-62
2021/08/20 01:50:04;;;;;;;7.87;6.00;;;15.80;99.90;;;;;;5013622;28;20237;-61
2021/08/20 01:52:32;;;;;;;8.27;5.73;;;15.70;99.90;;;;;;5006081;28;20245;-63
2021/08/20 01:55:00;;;;;;;8.67;5.77;;;15.80;99.90;;;;;;5008952;28;20712;-62
2021/08/20 01:57:28;;;;;;;7.73;5.87;;;15.80;99.90;;;;;;5008004;28;20253;-62
2021/08/20 01:59:59;;;;;;;10.93;6.50;;;15.80;99.90;;;;;;4982574;28;20258;-61
2021/08/20 02:02:27;;;;;;;9.80;6.20;;;15.80;99.90;;;;;;5003497;28;20268;-62
2021/08/20 02:04:56;;;;;;;9.03;6.23;;;15.70;99.90;;;;;;5016079;28;20237;-64
2021/08/20 02:07:25;;;;;;;9.00;6.53;;;15.70;99.90;;;;;;5004336;28;20249;-62
2021/08/20 02:09:54;;;;;;;9.97;6.63;;;15.70;99.90;;;;;;5013518;28;20237;-62
2021/08/20 02:12:22;;;;;;;10.63;7.30;;;15.70;99.90;;;;;;5003936;28;20238;-63
2021/08/20 02:15:07;;;;;;;12.67;7.60;;;15.70;99.90;;;;;;5022188;28;20239;-61
2021/08/20 02:17:36;;;;;;;9.77;6.97;;;15.70;99.90;;;;;;5003370;28;20320;-61
2021/08/20 02:20:07;;;;;;;12.53;7.93;;;15.70;99.90;;;;;;5006471;28;20232;-61
2021/08/20 02:22:36;;;;;;;10.67;7.47;;;15.60;99.90;;;;;;5011973;28;20240;-62
2021/08/20 02:25:06;;;;;;;10.83;7.87;;;15.70;99.90;;;;;;5011847;28;20311;-62
2021/08/20 02:27:34;;;;;;;10.57;7.77;;;15.60;99.90;;;;;;5006381;28;20233;-64
2021/08/20 02:30:02;;;;;;;12.07;8.13;;;15.60;99.90;;;;;;5007534;28;20240;-62
2021/08/20 02:32:39;;;;;;;9.73;7.70;;;15.60;99.90;;;;;;5006165;28;20547;-62
2021/08/20 02:35:21;;;;;;;12.23;8.40;;;15.60;99.90;;;;;;5006100;28;20240;-62
2021/08/20 02:37:50;;;;;;;10.87;7.83;;;15.60;99.90;;;;;;5005590;28;20291;-62
2021/08/20 02:40:18;;;;;;;10.87;8.50;;;15.60;99.90;;;;;;5006440;28;20308;-61
2021/08/20 02:42:50;;;;;;;11.03;7.93;;;15.50;99.90;;;;;;5004835;28;20644;-62
2021/08/20 02:45:19;;;;;;;10.93;8.37;;;15.70;99.90;;;;;;5006735;28;20745;-63
2021/08/20 02:47:55;;;;;;;12.30;8.20;;;15.60;99.90;;;;;;5022746;28;20242;-62
2021/08/20 02:50:23;;;;;;;12.80;8.47;;;15.50;99.90;;;;;;5007231;28;20307;-62
2021/08/20 02:52:52;;;;;;;10.70;8.10;;;15.50;99.90;;;;;;5005185;28;20237;-63
2021/08/20 02:55:24;;;;;;;13.43;9.33;;;15.50;99.90;;;;;;5005400;28;20630;-63
2021/08/20 02:57:52;;;;;;;10.97;8.50;;;15.50;99.90;;;;;;5005777;28;20586;-61
2021/08/20 03:00:21;;;;;;;13.47;9.43;;;15.50;99.90;;;;;;5008313;28;20240;-62
2021/08/20 03:03:12;;;;;;;12.93;9.77;;;15.50;99.90;;;;;;5091725;27;21113;-62
2021/08/20 03:05:40;;;;;;;12.40;10.03;;;15.50;99.90;;;;;;5119981;27;20250;-62
2021/08/20 03:08:08;;;;;;;13.57;10.23;;;15.40;99.90;;;;;;5124844;27;20302;-62
2021/08/20 03:10:36;;;;;;;14.33;10.10;;;15.40;99.90;;;;;;5117927;27;20226;-62
2021/08/20 03:13:05;;;;;;;14.20;11.10;;;15.40;99.90;;;;;;5117022;27;20249;-62
2021/08/20 03:15:33;;;;;;;16.67;10.47;;;15.40;99.90;;;;;;5082049;28;20288;-61
2021/08/20 03:18:02;;;;;;;14.50;10.43;;;15.40;99.90;;;;;;5117878;27;20229;-62
2021/08/20 03:20:32;;;;;;;14.30;11.07;;;15.40;99.90;;;;;;5118208;27;20234;-63
2021/08/20 03:23:08;;;;;;;14.07;10.47;;;15.40;99.90;;;;;;5121714;27;20240;-63
2021/08/20 03:25:36;;;;;;;15.40;11.30;;;15.40;99.90;;;;;;5125223;27;20270;-63
2021/08/20 03:28:07;;;;;;;15.20;11.20;;;15.40;99.90;;;;;;5085694;27;20257;-62
2021/08/20 03:30:40;;;;;;;13.37;10.53;;;15.40;99.90;;;;;;5118085;27;20713;-62
2021/08/20 03:33:10;;;;;;;15.00;10.20;;;15.40;99.90;;;;;;5082217;28;20317;-62
2021/08/20 03:35:43;;;;;;;14.67;10.13;;;15.40;99.90;;;;;;5083339;28;20921;-62
2021/08/20 03:38:19;;;;;;;15.70;10.47;;;15.40;99.90;;;;;;5079345;28;20234;-62
2021/08/20 03:40:49;;;;;;;14.13;9.93;;;15.30;99.90;;;;;;5080160;28;20337;-61
2021/08/20 03:43:21;;;;;;;12.40;9.93;;;15.30;99.90;;;;;;5085225;27;20276;-62
2021/08/20 03:45:58;;;;;;;12.07;9.13;;;15.30;99.90;;;;;;5084070;28;20235;-61
2021/08/20 03:48:31;;;;;;;10.80;9.57;;;15.30;99.90;;;;;;5084340;28;20243;-63
2021/08/20 03:51:03;;;;;;;10.60;8.77;;;15.20;99.90;;;;;;5061152;28;20327;-62
2021/08/20 03:53:34;;;;;;;13.53;9.40;;;15.30;99.90;;;;;;5060294;28;20242;-63
2021/08/20 03:56:02;;;;;;;10.73;8.57;;;15.30;99.90;;;;;;5066328;28;20249;-61
2021/08/20 03:58:42;;;;;;;9.53;7.97;;;15.30;99.90;;;;;;5062947;28;20235;-62
2021/08/20 04:01:16;;;;;;;10.73;8.37;;;15.30;99.90;;;;;;5061158;28;20338;-62
2021/08/20 04:03:47;;;;;;;11.37;7.80;;;15.30;99.90;;;;;;5065868;28;20235;-62
2021/08/20 04:06:27;;;;;;;9.23;7.70;;;15.30;99.90;;;;;;5056893;28;20305;-61
2021/08/20 04:08:55;;;;;;;12.17;8.87;;;15.30;99.90;;;;;;5062850;28;20286;-63
2021/08/20 04:11:42;;;;;;;10.60;7.97;;;15.30;99.90;;;;;;5093249;28;20243;-61
2021/08/20 04:14:24;;;;;;;11.63;8.47;;;15.30;99.90;;;;;;5061292;28;20249;-62
2021/08/20 04:16:52;;;;;;;9.83;7.90;;;15.20;99.90;;;;;;5077834;28;20241;-62
2021/08/20 04:19:20;;;;;;;12.87;8.83;;;15.30;99.90;;;;;;5088966;28;20309;-61
2021/08/20 04:21:50;;;;;;;12.30;8.30;;;15.30;99.90;;;;;;5069087;28;20227;-62
2021/08/20 04:24:19;;;;;;;8.90;7.93;;;15.30;99.90;;;;;;5075648;28;20230;-61
2021/08/20 04:26:50;;;;;;;12.23;9.17;;;15.30;99.90;;;;;;5078162;28;20625;-62
2021/08/20 04:29:44;;;;;;;11.93;8.70;;;15.30;99.90;;;;;;5061399;28;20249;-62
2021/08/20 04:32:32;;;;;;;9.93;8.33;;;15.40;99.90;;;;;;5073347;28;20235;-62
2021/08/20 04:35:15;;;;;;;10.53;8.20;;;15.40;99.90;;;;;;5072523;28;20588;-62
2021/08/20 04:38:23;;;;;;;10.97;8.50;;;15.40;99.90;;;;;;5068722;28;20242;-62
2021/08/20 04:41:09;;;;;;;11.20;8.50;;;15.40;99.90;;;;;;5071173;28;20694;-62
2021/08/20 04:43:50;;;;;;;9.43;7.97;;;15.40;99.90;;;;;;5067627;28;20735;-62
2021/08/20 04:46:37;;;;;;;14.13;9.83;;;15.50;99.90;;;;;;5046858;28;20717;-62
2021/08/20 04:49:29;;;;;;;12.60;9.60;;;15.40;99.90;;;;;;5052954;28;20707;-63
2021/08/20 04:52:20;;;;;;;13.07;9.80;;;15.40;99.90;;;;;;5068941;28;20242;-63
2021/08/20 04:55:09;;;;;;;10.87;8.80;;;15.40;99.90;;;;;;5071403;28;20324;-62
2021/08/20 04:57:37;;;;;;;10.07;8.50;;;15.40;99.90;;;;;;5069115;28;20314;-62
2021/08/20 05:00:07;;;;;;;11.13;9.23;;;15.40;99.90;;;;;;5071061;28;20247;-63
2021/08/20 05:02:36;;;;;;;13.43;9.30;;;15.50;99.90;;;;;;5071331;28;20720;-62
2021/08/20 05:05:07;;;;;;;11.87;9.40;;;15.50;99.90;;;;;;5069542;28;20585;-63
2021/08/20 05:07:35;;;;;;;10.83;8.73;;;15.50;99.90;;;;;;5073623;28;20258;-63
2021/08/20 05:10:06;;;;;;;11.27;8.23;;;15.50;99.90;;;;;;5072317;28;20235;-62
2021/08/20 05:12:35;;;;;;;12.37;8.90;;;15.50;99.90;;;;;;5049625;28;20262;-62
2021/08/20 05:15:04;;;;;;;11.63;9.13;;;15.50;99.90;;;;;;5048144;28;20236;-62
2021/08/20 05:17:32;;;;;;;11.63;9.40;;;15.50;99.90;;;;;;5046965;28;20702;-62
2021/08/20 05:20:00;;;;;;;13.13;9.60;;;15.60;99.90;;;;;;5050824;28;20787;-62
2021/08/20 05:22:43;;;;;;;10.43;9.30;;;15.50;99.90;;;;;;5066211;28;20269;-61
2021/08/20 05:25:13;;;;;;;12.17;9.97;;;15.50;99.90;;;;;;5066841;28;20227;-63
2021/08/20 05:27:43;;;;;;;10.27;8.93;;;15.50;99.90;;;;;;5067719;28;20598;-62
2021/08/20 05:30:13;;;;;;;11.87;9.20;;;15.50;99.90;;;;;;5071142;28;20909;-61
2021/08/20 05:32:43;;;;;;;10.17;8.60;;;15.50;99.90;;;;;;5068042;28;20284;-62
2021/08/20 05:35:13;;;;;;;10.23;8.80;;;15.50;99.90;;;;;;5059710;28;20330;-62
2021/08/20 05:37:41;;;;;;;9.87;8.53;;;15.50;99.90;;;;;;5049119;28;20770;-62
2021/08/20 05:40:10;;;;;;;11.93;8.47;;;15.50;99.90;;;;;;5055303;28;20236;-62
2021/08/20 05:42:39;;;;;;;9.80;8.20;;;15.40;99.90;;;;;;5048788;28;20293;-62
2021/08/20 05:45:10;;;;;;;10.03;8.13;;;15.40;99.90;;;;;;5048638;28;20344;-62
2021/08/20 05:47:38;;;;;;;8.27;7.47;;;15.40;99.90;;;;;;5048733;28;20236;-63
2021/08/20 05:50:08;;;;;;;11.50;7.57;;;15.40;99.90;;;;;;5046699;28;20664;-61
2021/08/20 05:52:37;;;;;;;9.20;7.27;;;15.40;99.90;;;;;;5060283;28;20663;-62
2021/08/20 05:55:07;;;;;;;8.97;7.53;;;15.50;99.90;;;;;;5070319;28;20249;-61
2021/08/20 05:57:35;;;;;;;10.33;7.43;;;15.50;99.90;;;;;;5061311;28;20255;-61
2021/08/20 06:00:05;;;;;;;9.00;7.00;;;15.50;99.90;;;;;;5062097;28;20246;-62
2021/08/20 06:02:42;;;;;;;9.03;6.50;;;15.50;99.90;;;;;;5068490;28;20345;-62
2021/08/20 06:05:16;;;;;;;7.73;6.50;;;15.50;99.90;;;;;;5060294;28;20234;-62
2021/08/20 06:07:44;;;;;;;7.23;6.50;;;15.50;99.90;;;;;;5060039;28;20236;-63
2021/08/20 06:10:13;;;;;;;9.17;6.60;;;15.50;99.90;;;;;;5069656;28;20670;-63
2021/08/20 06:12:41;;;;;;;8.63;6.20;;;15.60;99.90;;;;;;5065909;28;20245;-62
2021/08/20 06:15:13;;;;;;;7.60;6.80;;;15.60;99.90;;;;;;5077484;28;20696;-62
2021/08/20 06:17:43;;;;;;;7.40;6.37;;;15.50;99.90;;;;;;5061988;28;20610;-62
2021/08/20 06:20:13;;;;;;;7.27;6.50;;;15.60;99.90;;;;;;5059023;28;20265;-63
2021/08/20 06:22:41;;;;;;;8.07;6.17;;;15.60;99.90;;;;;;5063204;28;20240;-61
2021/08/20 06:25:10;;;;;;;9.03;6.10;;;15.60;99.90;;;;;;5075152;28;20797;-62
2021/08/20 06:27:38;;;;;;;6.90;6.20;;;15.70;99.90;;;;;;5062485;28;20231;-62
2021/08/20 06:30:07;;;;;;;8.93;6.40;;;15.70;99.90;;;;;;5073333;28;20246;-63
2021/08/20 06:32:35;;;;;;;7.27;5.77;;;15.70;99.90;;;;;;5070228;28;20239;-62
2021/08/20 06:35:05;;;;;;;7.00;6.17;;;15.70;99.90;;;;;;5075233;28;20296;-63
2021/08/20 06:37:34;;;;;;;8.30;5.80;;;15.70;99.90;;;;;;5064989;28;20242;-62
2021/08/20 06:40:03;;;;;;;8.47;6.33;;;15.70;99.90;;;;;;5079432;28;20325;-62
2021/08/20 06:42:31;;;;;;;8.13;6.47;;;15.70;99.90;;;;;;5069376;28;20748;-63
2021/08/20 06:44:59;;;;;;;8.20;6.40;;;15.70;99.90;;;;;;5074796;28;20333;-63
2021/08/20 06:47:27;;;;;;;7.13;6.00;;;15.70;99.90;;;;;;5078001;28;20258;-62
2021/08/20 06:49:55;;;;;;;7.07;6.23;;;15.80;99.90;;;;;;5064014;28;20272;-62
2021/08/20 06:52:25;;;;;;;7.70;6.13;;;15.80;99.90;;;;;;5059928;28;20659;-62
2021/08/20 06:54:57;;;;;;;7.53;6.77;;;15.80;99.90;;;;;;5074309;28;20538;-62
2021/08/20 06:57:27;;;;;;;8.50;6.57;;;15.90;99.90;;;;;;5061353;28;20257;-63
2021/08/20 06:59:55;;;;;;;6.77;6.07;;;15.90;99.90;;;;;;5044046;28;20282;-62
2021/08/20 07:02:23;;;;;;;7.83;6.83;;;15.90;99.90;;;;;;5042223;28;20244;-61
2021/08/20 07:04:53;;;;;;;9.37;7.20;;;15.90;99.90;;;;;;5041826;28;20812;-63
2021/08/20 07:07:21;;;;;;;9.23;6.87;;;15.90;99.90;;;;;;5044940;28;20634;-63
2021/08/20 07:09:50;;;;;;;7.73;6.20;;;16.00;99.90;;;;;;5043975;28;20752;-62
2021/08/20 07:12:18;;;;;;;7.43;6.73;;;16.20;99.90;;;;;;5046375;28;20736;-63
2021/08/20 07:14:46;;;;;;;9.50;7.33;;;16.20;99.90;;;;;;5047771;28;20236;-63
2021/08/20 07:17:15;;;;;;;8.97;7.30;;;16.40;99.90;;;;;;5049921;28;20322;-63
2021/08/20 07:19:43;;;;;;;9.33;7.10;;;16.50;99.90;;;;;;5064530;28;20246;-63
2021/08/20 07:22:11;;;;;;;9.47;7.70;;;16.60;99.90;;;;;;5066537;28;20241;-62
2021/08/20 07:24:39;;;;;;;10.87;8.00;;;16.70;99.90;;;;;;5076415;28;20235;-62
2021/08/20 07:27:08;;;;;;;10.57;8.73;;;16.80;99.90;;;;;;5074838;28;20330;-63
2021/08/20 07:29:36;;;;;;;13.27;10.23;;;16.80;99.90;;;;;;5070565;28;20463;-62
2021/08/20 07:32:05;;;;;;;10.67;9.17;;;16.90;99.90;;;;;;5066859;28;20240;-63
2021/08/20 07:34:34;;;;;;;12.00;9.47;;;16.90;99.90;;;;;;5072948;28;20234;-63
2021/08/20 07:37:02;;;;;;;12.17;9.77;;;17.00;99.90;;;;;;5070411;28;20244;-63
2021/08/20 07:39:30;;;;;;;11.67;9.70;;;17.20;99.90;;;;;;5074878;28;20245;-62
2021/08/20 07:41:58;;;;;;;11.27;9.77;;;17.30;99.90;;;;;;5072115;28;20759;-63
2021/08/20 07:44:28;;;;;;;12.30;10.63;;;17.40;99.90;;;;;;5074252;28;20253;-62
2021/08/20 07:46:56;;;;;;;12.60;10.00;;;17.50;99.90;;;;;;5077458;28;20322;-63
2021/08/20 07:49:24;;;;;;;13.07;9.80;;;17.50;99.90;;;;;;5070936;28;20243;-61
2021/08/20 07:51:53;;;;;;;12.60;11.00;;;17.50;99.90;;;;;;5074706;28;20292;-62
2021/08/20 07:54:21;;;;;;;14.90;12.90;;;17.50;99.90;;;;;;5084996;28;20323;-63
2021/08/20 07:56:49;;;;;;;15.33;11.87;;;17.60;99.90;;;;;;5085359;28;20724;-63
2021/08/20 07:59:17;;;;;;;16.90;12.40;;;17.70;99.90;;;;;;5074653;28;20231;-62
2021/08/20 08:01:46;;;;;;;16.37;13.13;;;17.70;99.90;;;;;;5074562;28;20750;-62
2021/08/20 08:04:15;;;;;;;16.73;12.17;;;17.70;99.90;;;;;;5077668;28;20787;-63
2021/08/20 08:06:43;;;;;;;14.90;13.30;;;17.70;99.90;;;;;;5078782;28;20246;-63
2021/08/20 08:09:11;;;;;;;14.93;13.20;;;17.70;99.90;;;;;;5076162;28;20247;-62
2021/08/20 08:11:39;;;;;;;14.90;13.03;;;17.70;99.90;;;;;;5078372;28;20246;-64
2021/08/20 08:14:09;;;;;;;14.37;12.50;;;17.80;99.90;;;;;;5073940;28;20244;-62
2021/08/20 08:16:41;;;;;;;14.47;12.97;;;17.70;99.90;;;;;;5078523;28;20247;-63
2021/08/20 08:19:11;;;;;;;15.73;12.53;;;17.70;99.90;;;;;;5068922;28;20248;-62
2021/08/20 08:21:39;;;;;;;14.60;12.80;;;17.70;99.90;;;;;;5074864;28;20242;-63
2021/08/20 08:24:07;;;;;;;14.20;12.70;;;17.80;99.90;;;;;;5075939;28;20715;-62
2021/08/20 08:26:35;;;;;;;14.63;13.10;;;17.80;99.90;;;;;;5078068;28;20254;-63
2021/08/20 08:29:03;;;;;;;16.57;13.43;;;17.90;99.90;;;;;;5068680;28;20298;-63
2021/08/20 08:31:31;;;;;;;15.60;13.30;;;17.80;99.90;;;;;;5085373;28;20264;-63
2021/08/20 08:34:00;;;;;;;14.20;12.47;;;17.90;99.90;;;;;;5065622;28;20234;-62
2021/08/20 08:36:30;;;;;;;14.30;12.57;;;18.00;99.90;;;;;;5071091;28;20725;-63
2021/08/20 08:38:58;;;;;;;14.43;12.90;;;18.10;99.90;;;;;;5072683;28;20510;-62
2021/08/20 08:41:27;;;;;;;13.37;11.50;;;18.20;99.90;;;;;;5074292;28;20244;-62
2021/08/20 08:43:55;;;;;;;12.97;11.70;;;18.20;99.90;;;;;;5068912;28;20263;-64
2021/08/20 08:46:24;;;;;;;13.90;12.50;;;18.20;99.90;;;;;;5069602;28;20596;-63
2021/08/20 08:48:53;;;;;;;13.53;12.13;;;18.00;99.90;;;;;;5066655;28;20294;-62
2021/08/20 08:51:21;;;;;;;16.50;13.80;;;17.60;99.90;;;;;;5065028;28;20236;-64
2021/08/20 08:53:50;;;;;;;16.03;14.27;;;17.40;99.90;;;;;;5066317;28;20262;-63
2021/08/20 08:56:19;;;;;;;16.33;14.60;;;17.40;99.90;;;;;;5054001;28;20239;-63
2021/08/20 08:58:48;;;;;;;15.60;12.77;;;17.40;99.90;;;;;;5044547;28;20329;-63
2021/08/20 09:01:30;;;;;;;14.27;12.77;;;17.60;99.90;;;;;;5052307;28;20236;-62
2021/08/20 09:04:14;;;;;;;14.47;12.97;;;17.70;99.90;;;;;;5042851;28;20341;-62
2021/08/20 09:06:44;;;;;;;16.40;14.70;;;17.80;99.90;;;;;;5048549;28;20246;-63
2021/08/20 09:09:15;;;;;;;16.63;14.93;;;17.90;99.90;;;;;;5053074;28;20246;-63
2021/08/20 09:11:44;;;;;;;15.27;13.67;;;17.90;99.90;;;;;;5046830;28;20318;-63
2021/08/20 09:14:17;;;;;;;16.47;14.73;;;17.90;99.90;;;;;;5048576;28;20233;-62
2021/08/20 09:16:46;;;;;;;17.10;15.13;;;17.90;99.90;;;;;;5047058;28;20295;-63
2021/08/20 09:19:16;;;;;;;15.93;14.23;;;17.90;99.90;;;;;;5044955;28;20250;-62
2021/08/20 09:21:47;;;;;;;17.23;15.53;;;18.10;99.90;;;;;;5047462;28;20234;-63
2021/08/20 09:24:38;;;;;;;18.67;15.03;;;18.10;99.90;;;;;;5047038;28;20321;-62
2021/08/20 09:27:24;;;;;;;17.60;15.37;;;18.10;99.90;;;;;;5054304;28;20642;-64
2021/08/20 09:30:04;;;;;;;16.40;14.80;;;18.00;99.90;;;;;;5044750;28;20239;-63
2021/08/20 09:32:32;;;;;;;16.87;14.60;;;17.90;99.90;;;;;;5048728;28;20740;-63
2021/08/20 09:35:01;;;;;;;18.07;16.27;;;18.10;99.90;;;;;;5064656;28;20244;-63
2021/08/20 09:37:31;;;;;;;16.03;14.53;;;18.70;99.90;;;;;;5064749;28;20239;-62
2021/08/20 09:40:04;;;;;;;16.57;14.87;;;19.40;99.90;;;;;;5065266;28;20711;-62
2021/08/20 09:42:36;;;;;;;14.27;12.80;;;20.00;99.90;;;;;;5064364;28;20307;-62
2021/08/20 09:45:16;;;;;;;13.87;12.57;;;20.40;99.90;;;;;;5064661;28;20292;-62
2021/08/20 09:47:45;;;;;;;13.97;12.57;;;20.30;99.90;;;;;;5063933;28;20256;-63
2021/08/20 09:50:14;;;;;;;13.60;12.20;;;20.10;99.90;;;;;;5064071;28;20233;-63
2021/08/20 09:52:42;;;;;;;16.73;13.03;;;20.10;99.90;;;;;;5063460;28;20739;-62
2021/08/20 09:55:12;;;;;;;14.27;12.67;;;20.10;99.90;;;;;;5063909;28;20747;-62
2021/08/20 09:57:41;;;;;;;14.13;12.73;;;20.10;99.90;;;;;;5063675;28;20679;-63
2021/08/20 10:00:14;;;;;;;13.50;12.10;;;20.00;99.90;;;;;;5059811;28;20234;-63
2021/08/20 10:02:43;;;;;;;12.77;11.50;;;20.00;99.90;;;;;;5055536;28;20623;-64
2021/08/20 10:05:12;;;;;;;12.40;11.20;;;20.00;99.90;;;;;;5058475;28;20242;-63
2021/08/20 10:07:40;;;;;;;12.73;11.43;;;19.90;99.90;;;;;;5055328;28;20247;-65
2021/08/20 10:10:11;;;;;;;13.60;11.77;;;19.90;99.90;;;;;;5057372;28;20269;-63
2021/08/20 10:12:44;;;;;;;11.37;10.10;;;19.90;99.90;;;;;;5057509;28;20241;-63
2021/08/20 10:15:13;;;;;;;10.63;9.63;;;20.40;99.90;;;;;;5054136;28;20230;-63
2021/08/20 10:17:41;;;;;;;10.67;9.53;;;21.00;99.90;;;;;;5048789;28;20261;-63
2021/08/20 10:20:10;;;;;;;9.80;8.83;;;21.80;99.90;;;;;;5046677;28;20920;-64
2021/08/20 10:22:39;;;;;;;9.13;8.23;;;22.60;99.90;;;;;;5046667;28;20235;-63
2021/08/20 10:25:09;;;;;;;10.37;8.43;;;23.20;99.90;;;;;;5048993;28;20338;-62
2021/08/20 10:27:41;;;;;;;9.37;8.37;;;23.00;99.90;;;;;;5048469;28;20241;-63
2021/08/20 10:30:11;;;;;;;9.30;7.93;;;23.00;99.90;;;;;;5046693;28;20756;-65
2021/08/20 10:32:59;;;;;;;8.17;7.43;;;23.00;99.90;;;;;;5040633;28;20789;-64
2021/08/20 10:35:53;;;;;;;10.40;7.03;;;23.10;99.90;;;;;;5037975;28;20249;-63
2021/08/20 10:38:30;;;;;;;8.27;7.47;;;23.60;99.90;;;;;;5029065;28;20244;-64
2021/08/20 10:41:13;;;;;;;8.60;6.73;;;23.20;99.90;;;;;;5040431;28;20350;-64
2021/08/20 10:43:56;;;;;;;8.00;7.20;;;22.80;99.90;;;;;;5038023;28;21727;-64
2021/08/20 10:47:09;;;;;;;7.53;6.50;;;23.10;99.90;;;;;;5034182;28;20680;-64
2021/08/20 10:49:43;;;;;;;6.57;5.77;;;23.20;99.90;;;;;;5032172;28;20247;-63
2021/08/20 10:52:28;;;;;;;7.63;5.90;;;22.90;99.90;;;;;;5041808;28;20653;-64
2021/08/20 10:55:30;;;;;;;7.73;6.77;;;22.40;99.90;;;;;;5037013;28;20242;-63
2021/08/20 10:58:10;;;;;;;8.27;7.07;;;21.90;99.90;;;;;;5029185;28;20787;-64
2021/08/20 11:00:55;;;;;;;9.03;7.60;;;21.30;99.90;;;;;;5028725;28;20884;-64
2021/08/20 11:03:49;;;;;;;7.33;6.63;;;20.80;99.90;;;;;;5028874;28;20797;-64
2021/08/20 11:06:52;;;;;;;8.97;7.00;;;20.40;99.90;;;;;;5049415;28;20341;-63
2021/08/20 11:09:31;;;;;;;8.53;7.63;;;20.10;99.90;;;;;;5046105;28;20752;-63
2021/08/20 11:12:00;;;;;;;10.00;8.13;;;19.60;99.90;;;;;;5049217;28;20320;-64
2021/08/20 11:14:36;;;;;;;10.33;8.90;;;19.40;99.90;;;;;;5048192;28;20261;-65
2021/08/20 11:17:07;;;;;;;9.90;8.90;;;19.30;99.90;;;;;;5048391;28;20806;-64
2021/08/20 11:19:56;;;;;;;9.23;8.30;;;19.30;99.90;;;;;;5046979;28;20618;-63
2021/08/20 11:22:29;;;;;;;8.93;8.03;;;19.30;99.90;;;;;;5048137;28;20798;-64
2021/08/20 11:25:16;;;;;;;11.30;9.77;;;19.20;99.90;;;;;;5053317;28;20689;-63
2021/08/20 11:27:58;;;;;;;10.07;9.00;;;19.10;99.90;;;;;;5025844;28;20790;-64
2021/08/20 11:30:27;;;;;;;9.40;8.50;;;19.10;99.90;;;;;;5021121;28;20234;-63
2021/08/20 11:33:15;;;;;;;8.93;8.03;;;19.00;99.90;;;;;;5021560;28;20258;-63
2021/08/20 11:35:47;;;;;;;10.20;9.20;;;18.90;99.90;;;;;;5030729;28;20236;-64
2021/08/20 11:38:40;;;;;;;9.10;8.20;;;18.90;99.90;;;;;;5036944;28;20698;-64
2021/08/20 11:41:10;;;;;;;9.73;8.57;;;18.90;99.90;;;;;;5052880;28;20241;-63
2021/08/20 11:43:54;;;;;;;9.53;8.63;;;18.90;99.90;;;;;;5052493;28;20246;-64
2021/08/20 11:46:24;;;;;;;8.77;7.97;;;18.90;99.90;;;;;;5052060;28;20249;-65
2021/08/20 11:48:56;;;;;;;8.93;8.13;;;18.90;99.90;;;;;;5049808;28;20244;-64
2021/08/20 11:51:28;;;;;;;8.60;7.80;;;19.00;99.90;;;;;;5053216;28;20249;-63
2021/08/20 11:53:58;;;;;;;8.63;7.83;;;19.00;99.90;;;;;;5051524;28;20319;-62
2021/08/20 11:56:26;;;;;;;8.27;7.47;;;19.00;99.90;;;;;;5052866;28;20246;-64
2021/08/20 11:58:54;;;;;;;8.43;7.57;;;19.10;99.90;;;;;;5046213;28;20328;-65
2021/08/20 12:01:25;;;;;;;8.13;6.97;;;19.20;99.90;;;;;;5052047;28;20750;-63
2021/08/20 12:03:57;;;;;;;8.40;7.60;;;19.30;99.90;;;;;;5052069;28;20246;-64
2021/08/20 12:06:26;;;;;;;8.30;7.47;;;19.40;99.90;;;;;;5052826;28;20253;-63
2021/08/20 12:08:57;;;;;;;8.03;7.23;;;19.40;99.90;;;;;;5047607;28;21028;-64
2021/08/20 12:11:29;;;;;;;7.07;6.37;;;19.50;99.90;;;;;;5052291;28;20579;-63
2021/08/20 12:13:58;;;;;;;7.00;6.40;;;19.70;99.90;;;;;;5051882;28;20245;-63
2021/08/20 12:16:39;;;;;;;8.30;6.30;;;19.90;99.90;;;;;;5053004;28;20277;-64
2021/08/20 12:19:14;;;;;;;6.57;5.50;;;20.10;99.90;;;;;;5050106;28;20261;-63
2021/08/20 12:21:46;;;;;;;6.00;4.80;;;20.30;99.90;;;;;;5052517;28;20455;-62
2021/08/20 12:24:16;;;;;;;6.23;5.57;;;20.40;99.90;;;;;;5051825;28;20253;-64
2021/08/20 12:26:44;;;;;;;5.80;5.17;;;20.50;99.90;;;;;;5052134;28;20769;-65
2021/08/20 12:29:14;;;;;;;5.53;5.03;;;20.70;99.90;;;;;;5049547;28;20648;-63
2021/08/20 12:31:55;;;;;;;6.77;4.60;;;20.80;99.90;;;;;;5051832;28;20262;-63
2021/08/20 12:34:32;;;;;;;5.77;5.13;;;20.80;99.90;;;;;;5051063;28;20242;-64
2021/08/20 12:37:02;;;;;;;6.13;5.13;;;20.70;99.90;;;;;;5052031;28;20246;-64
2021/08/20 12:39:35;;;;;;;5.27;4.60;;;20.70;99.90;;;;;;5048493;28;20778;-63
2021/08/20 12:42:24;;;;;;;5.17;4.67;;;20.80;99.90;;;;;;5052316;28;20331;-65
2021/08/20 12:45:12;;;;;;;5.13;4.63;;;20.90;99.90;;;;;;5051983;28;20502;-64
2021/08/20 12:47:41;;;;;;;6.93;4.90;;;20.80;99.90;;;;;;5050430;28;20245;-64
2021/08/20 12:50:12;;;;;;;6.50;5.07;;;20.90;99.90;;;;;;5029018;28;20261;-63
2021/08/20 12:52:42;;;;;;;5.67;5.07;;;20.80;99.90;;;;;;5031399;28;20335;-64
2021/08/20 12:55:27;;;;;;;7.13;4.90;;;20.70;99.90;;;;;;5031134;28;20234;-64
2021/08/20 12:57:55;;;;;;;7.40;5.67;;;20.70;99.90;;;;;;5030843;28;20273;-64
2021/08/20 13:00:25;;;;;;;5.83;4.90;;;20.50;99.90;;;;;;5028663;28;20245;-64
2021/08/20 13:02:53;;;;;;;6.13;5.17;;;20.40;99.90;;;;;;5031040;28;20524;-64
2021/08/20 13:05:51;;;;;;;5.90;5.30;;;20.50;99.90;;;;;;5030902;28;20235;-64